Terminal Aerodrome Forecast
Issued by NWS Paducah, KY

Home | Current Version | Previous Version | Text Only | Print | Product List | Glossary On
Versions: 1 2 3 4 5 6 7 8 9 10 11 12 13
000
FTUS43 KPAH 130500
TAFPAH
TAF
KPAH 130520Z 1306/1406 36010KT P6SM OVC025
      TEMPO 1308/1312 6SM BR BKN008 OVC020
     FM131600 03011G18KT P6SM SCT015
     FM131900 03009KT P6SM SKC=

USA.gov is the U.S. government's official web portal to all federal, state and local government web resources and services.